sensor_id;sensor_type;location;lat;lon;timestamp;pressure;altitude;pressure_sealevel;temperature;humidity
20350;BME280;10332;50.208;18.988;2023-04-10T00:00:06;98819.75;;;9.98;87.97
20350;BME280;10332;50.208;18.988;2023-04-10T00:02:54;98819.81;;;9.96;88.05
20350;BME280;10332;50.208;18.988;2023-04-10T00:05:22;98819.97;;;9.93;88.56
20350;BME280;10332;50.208;18.988;2023-04-10T00:07:50;98813.75;;;9.96;88.76
20350;BME280;10332;50.208;18.988;2023-04-10T00:10:18;98813.75;;;9.96;88.90
20350;BME280;10332;50.208;18.988;2023-04-10T00:12:45;98815.38;;;9.99;88.92
20350;BME280;10332;50.208;18.988;2023-04-10T00:15:13;98805.59;;;10.02;88.64
20350;BME280;10332;50.208;18.988;2023-04-10T00:17:40;98803.66;;;10.06;88.73
20350;BME280;10332;50.208;18.988;2023-04-10T00:20:08;98813.59;;;9.99;89.13
20350;BME280;10332;50.208;18.988;2023-04-10T00:22:36;98804.16;;;9.96;89.37
20350;BME280;10332;50.208;18.988;2023-04-10T00:25:03;98792.31;;;9.91;89.59
20350;BME280;10332;50.208;18.988;2023-04-10T00:27:32;98803.31;;;9.96;89.17
20350;BME280;10332;50.208;18.988;2023-04-10T00:29:59;98795.50;;;9.96;89.07
20350;BME280;10332;50.208;18.988;2023-04-10T00:32:28;98787.75;;;9.94;88.97
20350;BME280;10332;50.208;18.988;2023-04-10T00:34:56;98795.00;;;9.89;89.22
20350;BME280;10332;50.208;18.988;2023-04-10T00:37:23;98791.69;;;9.86;89.62
20350;BME280;10332;50.208;18.988;2023-04-10T00:39:51;98791.97;;;9.81;89.98
20350;BME280;10332;50.208;18.988;2023-04-10T00:42:18;98790.28;;;9.80;90.10
20350;BME280;10332;50.208;18.988;2023-04-10T00:44:45;98790.91;;;9.68;90.77
20350;BME280;10332;50.208;18.988;2023-04-10T00:47:13;98796.00;;;9.71;90.70
20350;BME280;10332;50.208;18.988;2023-04-10T00:49:42;98798.09;;;9.80;90.01
20350;BME280;10332;50.208;18.988;2023-04-10T00:52:11;98794.97;;;9.74;90.34
20350;BME280;10332;50.208;18.988;2023-04-10T00:54:39;98793.13;;;9.76;90.26
20350;BME280;10332;50.208;18.988;2023-04-10T00:57:07;98792.44;;;9.72;90.68
20350;BME280;10332;50.208;18.988;2023-04-10T00:59:35;98792.28;;;9.75;90.40
20350;BME280;10332;50.208;18.988;2023-04-10T01:02:03;98784.88;;;9.67;91.21
20350;BME280;10332;50.208;18.988;2023-04-10T01:04:31;98791.25;;;9.62;91.68
20350;BME280;10332;50.208;18.988;2023-04-10T01:07:26;98780.09;;;9.43;92.70
20350;BME280;10332;50.208;18.988;2023-04-10T01:15:57;98798.66;;;9.70;91.51
20350;BME280;10332;50.208;18.988;2023-04-10T01:21:16;98796.81;;;9.72;91.91
20350;BME280;10332;50.208;18.988;2023-04-10T01:24:23;98791.97;;;9.81;91.18
20350;BME280;10332;50.208;18.988;2023-04-10T01:29:46;98781.41;;;9.67;91.56
20350;BME280;10332;50.208;18.988;2023-04-10T01:32:21;98786.81;;;9.64;91.86
20350;BME280;10332;50.208;18.988;2023-04-10T01:34:53;98787.13;;;9.58;92.43
20350;BME280;10332;50.208;18.988;2023-04-10T01:37:29;98799.50;;;9.70;91.84
20350;BME280;10332;50.208;18.988;2023-04-10T01:40:03;98799.88;;;9.80;91.40
20350;BME280;10332;50.208;18.988;2023-04-10T01:42:40;98805.56;;;9.86;91.07
20350;BME280;10332;50.208;18.988;2023-04-10T01:45:17;98807.69;;;9.95;90.71
20350;BME280;10332;50.208;18.988;2023-04-10T01:47:45;98805.59;;;10.02;90.43
20350;BME280;10332;50.208;18.988;2023-04-10T01:50:15;98809.56;;;10.09;90.19
20350;BME280;10332;50.208;18.988;2023-04-10T01:52:44;98804.78;;;10.17;89.90
20350;BME280;10332;50.208;18.988;2023-04-10T01:55:14;98809.81;;;10.20;89.51
20350;BME280;10332;50.208;18.988;2023-04-10T01:57:42;98804.84;;;10.16;89.61
20350;BME280;10332;50.208;18.988;2023-04-10T02:00:10;98800.72;;;10.12;89.79
20350;BME280;10332;50.208;18.988;2023-04-10T02:02:38;98799.22;;;10.08;89.53
20350;BME280;10332;50.208;18.988;2023-04-10T02:05:06;98796.19;;;10.00;90.41
20350;BME280;10332;50.208;18.988;2023-04-10T02:08:07;98795.81;;;9.74;91.85
20350;BME280;10332;50.208;18.988;2023-04-10T02:10:55;98787.38;;;9.69;92.24
20350;BME280;10332;50.208;18.988;2023-04-10T02:13:26;98797.97;;;9.66;92.44
20350;BME280;10332;50.208;18.988;2023-04-10T02:15:58;98795.59;;;9.61;92.89
20350;BME280;10332;50.208;18.988;2023-04-10T02:18:32;98798.31;;;9.60;93.02
20350;BME280;10332;50.208;18.988;2023-04-10T02:21:01;98799.97;;;9.61;92.84
20350;BME280;10332;50.208;18.988;2023-04-10T02:23:29;98799.22;;;9.59;92.92
20350;BME280;10332;50.208;18.988;2023-04-10T02:25:57;98796.69;;;9.57;93.28
20350;BME280;10332;50.208;18.988;2023-04-10T02:28:24;98799.63;;;9.51;93.79
20350;BME280;10332;50.208;18.988;2023-04-10T02:30:52;98794.88;;;9.42;94.77
20350;BME280;10332;50.208;18.988;2023-04-10T02:33:19;98794.38;;;9.35;95.58
20350;BME280;10332;50.208;18.988;2023-04-10T02:35:47;98797.88;;;9.34;96.03
20350;BME280;10332;50.208;18.988;2023-04-10T02:38:14;98793.28;;;9.39;95.46
20350;BME280;10332;50.208;18.988;2023-04-10T02:40:43;98794.06;;;9.42;95.56
20350;BME280;10332;50.208;18.988;2023-04-10T02:43:12;98800.28;;;9.39;95.41
20350;BME280;10332;50.208;18.988;2023-04-10T02:45:39;98796.91;;;9.37;95.48
20350;BME280;10332;50.208;18.988;2023-04-10T02:48:07;98801.19;;;9.38;95.53
20350;BME280;10332;50.208;18.988;2023-04-10T02:50:37;98797.84;;;9.36;95.73
20350;BME280;10332;50.208;18.988;2023-04-10T02:53:04;98807.00;;;9.43;95.58
20350;BME280;10332;50.208;18.988;2023-04-10T02:55:32;98805.00;;;9.48;95.29
20350;BME280;10332;50.208;18.988;2023-04-10T02:57:59;98802.72;;;9.42;95.95
20350;BME280;10332;50.208;18.988;2023-04-10T03:00:27;98799.03;;;9.46;94.98
20350;BME280;10332;50.208;18.988;2023-04-10T03:02:55;98805.25;;;9.44;95.29
20350;BME280;10332;50.208;18.988;2023-04-10T03:05:22;98806.31;;;9.39;95.44
20350;BME280;10332;50.208;18.988;2023-04-10T03:07:50;98800.94;;;9.43;95.66
20350;BME280;10332;50.208;18.988;2023-04-10T03:10:17;98797.66;;;9.39;95.61
20350;BME280;10332;50.208;18.988;2023-04-10T03:12:46;98804.66;;;9.38;95.59
20350;BME280;10332;50.208;18.988;2023-04-10T03:15:15;98797.38;;;9.28;96.62
20350;BME280;10332;50.208;18.988;2023-04-10T03:17:42;98803.34;;;9.30;96.81
20350;BME280;10332;50.208;18.988;2023-04-10T03:20:10;98797.84;;;9.36;96.51
20350;BME280;10332;50.208;18.988;2023-04-10T03:22:38;98797.88;;;9.34;96.69
20350;BME280;10332;50.208;18.988;2023-04-10T03:25:06;98795.44;;;9.31;97.22
20350;BME280;10332;50.208;18.988;2023-04-10T03:27:33;98797.22;;;9.31;97.48
20350;BME280;10332;50.208;18.988;2023-04-10T03:30:02;98801.91;;;9.24;98.50
20350;BME280;10332;50.208;18.988;2023-04-10T03:32:29;98795.63;;;9.28;98.17
20350;BME280;10332;50.208;18.988;2023-04-10T03:34:57;98798.81;;;9.33;97.92
20350;BME280;10332;50.208;18.988;2023-04-10T03:37:25;98798.75;;;9.35;97.99
20350;BME280;10332;50.208;18.988;2023-04-10T03:39:54;98798.75;;;9.35;98.05
20350;BME280;10332;50.208;18.988;2023-04-10T03:42:21;98799.34;;;9.40;97.73
20350;BME280;10332;50.208;18.988;2023-04-10T03:44:49;98801.28;;;9.36;97.83
20350;BME280;10332;50.208;18.988;2023-04-10T03:47:16;98806.41;;;9.38;98.08
20350;BME280;10332;50.208;18.988;2023-04-10T03:49:44;98810.63;;;9.41;98.45
20350;BME280;10332;50.208;18.988;2023-04-10T03:52:11;98806.31;;;9.39;99.12
20350;BME280;10332;50.208;18.988;2023-04-10T03:54:39;98805.31;;;9.42;98.62
20350;BME280;10332;50.208;18.988;2023-04-10T03:57:06;98804.25;;;9.46;98.71
20350;BME280;10332;50.208;18.988;2023-04-10T03:59:34;98798.94;;;9.48;98.57
20350;BME280;10332;50.208;18.988;2023-04-10T04:02:06;98797.09;;;9.50;98.57
20350;BME280;10332;50.208;18.988;2023-04-10T04:04:34;98806.16;;;9.43;98.90
20350;BME280;10332;50.208;18.988;2023-04-10T04:07:01;98805.31;;;9.42;99.06
20350;BME280;10332;50.208;18.988;2023-04-10T04:09:29;98798.50;;;9.39;99.01
20350;BME280;10332;50.208;18.988;2023-04-10T04:11:56;98792.28;;;9.42;98.80
20350;BME280;10332;50.208;18.988;2023-04-10T04:14:24;98805.84;;;9.49;98.74
20350;BME280;10332;50.208;18.988;2023-04-10T04:16:51;98802.47;;;9.47;98.83
20350;BME280;10332;50.208;18.988;2023-04-10T04:19:19;98793.38;;;9.38;99.85
20350;BME280;10332;50.208;18.988;2023-04-10T04:21:46;98801.78;;;9.43;99.47
20350;BME280;10332;50.208;18.988;2023-04-10T04:24:14;98801.78;;;9.43;99.48
20350;BME280;10332;50.208;18.988;2023-04-10T04:26:41;98799.13;;;9.45;99.64
20350;BME280;10332;50.208;18.988;2023-04-10T04:29:08;98806.50;;;9.52;99.16
20350;BME280;10332;50.208;18.988;2023-04-10T04:31:36;98801.56;;;9.48;99.32
20350;BME280;10332;50.208;18.988;2023-04-10T04:34:03;98806.59;;;9.51;99.30
20350;BME280;10332;50.208;18.988;2023-04-10T04:36:31;98814.28;;;9.54;99.07
20350;BME280;10332;50.208;18.988;2023-04-10T04:38:58;98813.34;;;9.55;99.25
20350;BME280;10332;50.208;18.988;2023-04-10T04:41:26;98810.41;;;9.61;98.88
20350;BME280;10332;50.208;18.988;2023-04-10T04:43:53;98816.53;;;9.60;98.83
20350;BME280;10332;50.208;18.988;2023-04-10T04:46:21;98817.16;;;9.65;98.62
20350;BME280;10332;50.208;18.988;2023-04-10T04:48:49;98819.00;;;9.63;98.83
20350;BME280;10332;50.208;18.988;2023-04-10T04:51:17;98818.22;;;9.61;98.89
20350;BME280;10332;50.208;18.988;2023-04-10T04:53:44;98819.31;;;9.57;99.29
20350;BME280;10332;50.208;18.988;2023-04-10T04:56:12;98823.97;;;9.67;98.74
20350;BME280;10332;50.208;18.988;2023-04-10T04:58:39;98827.09;;;9.74;98.24
20350;BME280;10332;50.208;18.988;2023-04-10T05:01:07;98835.41;;;9.65;98.54
20350;BME280;10332;50.208;18.988;2023-04-10T05:03:35;98836.91;;;9.69;98.45
20350;BME280;10332;50.208;18.988;2023-04-10T05:06:03;98841.28;;;9.68;98.27
20350;BME280;10332;50.208;18.988;2023-04-10T05:08:31;98837.53;;;9.74;97.82
20350;BME280;10332;50.208;18.988;2023-04-10T05:10:58;98836.53;;;9.77;97.78
20350;BME280;10332;50.208;18.988;2023-04-10T05:13:26;98844.25;;;9.78;97.47
20350;BME280;10332;50.208;18.988;2023-04-10T05:15:54;98843.06;;;9.68;97.64
20350;BME280;10332;50.208;18.988;2023-04-10T05:18:21;98837.22;;;9.80;97.33
20350;BME280;10332;50.208;18.988;2023-04-10T05:20:50;98837.97;;;9.82;96.93
20350;BME280;10332;50.208;18.988;2023-04-10T05:23:17;98834.66;;;9.79;96.97
20350;BME280;10332;50.208;18.988;2023-04-10T05:25:45;98845.81;;;9.82;97.14
20350;BME280;10332;50.208;18.988;2023-04-10T05:28:13;98843.53;;;9.92;97.00
20350;BME280;10332;50.208;18.988;2023-04-10T05:30:40;98845.41;;;9.90;97.04
20350;BME280;10332;50.208;18.988;2023-04-10T05:33:08;98844.56;;;9.89;97.02
20350;BME280;10332;50.208;18.988;2023-04-10T05:35:35;98843.47;;;9.93;96.74
20350;BME280;10332;50.208;18.988;2023-04-10T05:38:02;98849.50;;;9.94;96.61
20350;BME280;10332;50.208;18.988;2023-04-10T05:40:30;98852.38;;;9.89;96.79
20350;BME280;10332;50.208;18.988;2023-04-10T05:42:57;98850.41;;;9.77;97.88
20350;BME280;10332;50.208;18.988;2023-04-10T05:45:25;98845.94;;;9.79;97.42
20350;BME280;10332;50.208;18.988;2023-04-10T05:47:54;98847.66;;;9.80;97.43
20350;BME280;10332;50.208;18.988;2023-04-10T05:50:22;98849.34;;;9.81;97.36
20350;BME280;10332;50.208;18.988;2023-04-10T05:52:49;98849.34;;;9.81;97.43
20350;BME280;10332;50.208;18.988;2023-04-10T05:55:17;98852.88;;;9.80;97.56
20350;BME280;10332;50.208;18.988;2023-04-10T05:57:45;98858.94;;;9.81;97.27
20350;BME280;10332;50.208;18.988;2023-04-10T06:00:13;98862.28;;;9.83;97.26
20350;BME280;10332;50.208;18.988;2023-04-10T06:02:42;98851.84;;;9.83;97.29
20350;BME280;10332;50.208;18.988;2023-04-10T06:05:10;98857.59;;;9.89;97.21
20350;BME280;10332;50.208;18.988;2023-04-10T06:07:37;98852.03;;;9.95;96.96
20350;BME280;10332;50.208;18.988;2023-04-10T06:10:06;98854.06;;;10.06;97.04
20350;BME280;10332;50.208;18.988;2023-04-10T06:12:33;98860.63;;;10.13;96.78
20350;BME280;10332;50.208;18.988;2023-04-10T06:15:01;98860.22;;;10.21;96.41
20350;BME280;10332;50.208;18.988;2023-04-10T06:17:29;98873.00;;;10.27;96.36
20350;BME280;10332;50.208;18.988;2023-04-10T06:19:56;98870.53;;;10.40;95.82
20350;BME280;10332;50.208;18.988;2023-04-10T06:22:27;98875.84;;;10.38;95.51
20350;BME280;10332;50.208;18.988;2023-04-10T06:24:54;98870.22;;;10.46;95.24
20350;BME280;10332;50.208;18.988;2023-04-10T06:27:22;98871.06;;;10.46;94.48
20350;BME280;10332;50.208;18.988;2023-04-10T06:29:49;98866.25;;;10.55;94.72
20350;BME280;10332;50.208;18.988;2023-04-10T06:32:17;98860.44;;;10.65;94.34
20350;BME280;10332;50.208;18.988;2023-04-10T06:34:44;98859.81;;;10.60;94.17
20350;BME280;10332;50.208;18.988;2023-04-10T06:37:12;98866.25;;;10.70;93.79
20350;BME280;10332;50.208;18.988;2023-04-10T06:39:40;98873.56;;;10.48;94.31
20350;BME280;10332;50.208;18.988;2023-04-10T06:42:07;98882.44;;;10.45;94.46
20350;BME280;10332;50.208;18.988;2023-04-10T06:44:34;98884.00;;;10.32;94.61
20350;BME280;10332;50.208;18.988;2023-04-10T06:47:02;98881.16;;;10.37;94.77
20350;BME280;10332;50.208;18.988;2023-04-10T06:49:29;98878.53;;;10.37;94.76
20350;BME280;10332;50.208;18.988;2023-04-10T06:51:57;98885.13;;;10.44;94.43
20350;BME280;10332;50.208;18.988;2023-04-10T06:54:24;98874.41;;;10.48;94.12
20350;BME280;10332;50.208;18.988;2023-04-10T06:56:52;98883.78;;;10.52;93.89
20350;BME280;10332;50.208;18.988;2023-04-10T06:59:25;98877.19;;;10.45;93.97
20350;BME280;10332;50.208;18.988;2023-04-10T07:01:52;98882.00;;;10.37;93.93
20350;BME280;10332;50.208;18.988;2023-04-10T07:04:19;98881.47;;;10.31;94.45
20350;BME280;10332;50.208;18.988;2023-04-10T07:06:47;98886.47;;;10.35;94.38
20350;BME280;10332;50.208;18.988;2023-04-10T07:09:14;98881.81;;;10.40;94.37
20350;BME280;10332;50.208;18.988;2023-04-10T07:11:42;98878.13;;;10.44;93.98
20350;BME280;10332;50.208;18.988;2023-04-10T07:14:09;98876.13;;;10.34;94.21
20350;BME280;10332;50.208;18.988;2023-04-10T07:16:37;98874.06;;;10.39;94.35
20350;BME280;10332;50.208;18.988;2023-04-10T07:19:04;98861.22;;;10.36;94.38
20350;BME280;10332;50.208;18.988;2023-04-10T07:21:32;98873.25;;;10.38;94.07
20350;BME280;10332;50.208;18.988;2023-04-10T07:23:59;98876.03;;;10.35;94.40
20350;BME280;10332;50.208;18.988;2023-04-10T07:26:27;98868.78;;;10.40;94.47
20350;BME280;10332;50.208;18.988;2023-04-10T07:28:54;98870.97;;;10.48;94.24
20350;BME280;10332;50.208;18.988;2023-04-10T07:31:22;98869.94;;;10.50;94.06
20350;BME280;10332;50.208;18.988;2023-04-10T07:33:50;98875.25;;;10.65;93.79
20350;BME280;10332;50.208;18.988;2023-04-10T07:36:18;98878.00;;;10.77;93.41
20350;BME280;10332;50.208;18.988;2023-04-10T07:38:45;98875.16;;;10.82;93.07
20350;BME280;10332;50.208;18.988;2023-04-10T07:41:13;98873.03;;;10.89;92.29
20350;BME280;10332;50.208;18.988;2023-04-10T07:43:40;98869.31;;;10.93;92.17
20350;BME280;10332;50.208;18.988;2023-04-10T07:46:08;98872.63;;;11.11;91.82
20350;BME280;10332;50.208;18.988;2023-04-10T07:48:35;98872.59;;;11.26;91.42
20350;BME280;10332;50.208;18.988;2023-04-10T07:51:03;98867.31;;;11.42;90.93
20350;BME280;10332;50.208;18.988;2023-04-10T07:53:31;98866.00;;;11.49;90.01
20350;BME280;10332;50.208;18.988;2023-04-10T07:55:59;98866.03;;;11.63;89.28
20350;BME280;10332;50.208;18.988;2023-04-10T07:58:26;98868.94;;;11.73;89.18
20350;BME280;10332;50.208;18.988;2023-04-10T08:00:54;98869.25;;;11.83;88.73
20350;BME280;10332;50.208;18.988;2023-04-10T08:03:21;98871.50;;;11.89;88.59
20350;BME280;10332;50.208;18.988;2023-04-10T08:05:50;98877.66;;;12.02;87.42
20350;BME280;10332;50.208;18.988;2023-04-10T08:08:17;98875.03;;;12.02;86.84
20350;BME280;10332;50.208;18.988;2023-04-10T08:10:45;98870.91;;;12.12;86.81
20350;BME280;10332;50.208;18.988;2023-04-10T08:13:12;98881.38;;;12.27;86.19
20350;BME280;10332;50.208;18.988;2023-04-10T08:15:40;98876.78;;;12.30;85.74
20350;BME280;10332;50.208;18.988;2023-04-10T08:18:07;98881.28;;;12.42;85.54
20350;BME280;10332;50.208;18.988;2023-04-10T08:20:35;98875.41;;;12.66;84.40
20350;BME280;10332;50.208;18.988;2023-04-10T08:23:03;98866.22;;;12.73;84.03
20350;BME280;10332;50.208;18.988;2023-04-10T08:25:46;98865.72;;;12.81;84.14
20350;BME280;10332;50.208;18.988;2023-04-10T08:28:14;98857.38;;;13.28;82.73
20350;BME280;10332;50.208;18.988;2023-04-10T08:30:41;98872.63;;;13.61;82.15
20350;BME280;10332;50.208;18.988;2023-04-10T08:33:09;98873.44;;;13.36;82.69
20350;BME280;10332;50.208;18.988;2023-04-10T08:35:36;98873.53;;;13.34;82.46
20350;BME280;10332;50.208;18.988;2023-04-10T08:38:03;98884.44;;;13.28;82.75
20350;BME280;10332;50.208;18.988;2023-04-10T08:40:40;98889.91;;;13.38;82.14
20350;BME280;10332;50.208;18.988;2023-04-10T08:43:08;98884.81;;;13.49;81.76
20350;BME280;10332;50.208;18.988;2023-04-10T08:45:39;98879.78;;;13.59;81.07
20350;BME280;10332;50.208;18.988;2023-04-10T08:48:09;98880.94;;;13.80;80.78
20350;BME280;10332;50.208;18.988;2023-04-10T08:50:41;98870.22;;;13.71;79.98
20350;BME280;10332;50.208;18.988;2023-04-10T08:53:14;98872.94;;;13.95;79.08
20350;BME280;10332;50.208;18.988;2023-04-10T08:55:44;98863.03;;;14.24;78.96
20350;BME280;10332;50.208;18.988;2023-04-10T08:58:12;98868.03;;;14.39;79.15
20350;BME280;10332;50.208;18.988;2023-04-10T09:00:40;98868.03;;;14.52;78.94
20350;BME280;10332;50.208;18.988;2023-04-10T09:03:09;98862.00;;;14.63;77.86
20350;BME280;10332;50.208;18.988;2023-04-10T09:05:41;98863.78;;;15.10;76.41
20350;BME280;10332;50.208;18.988;2023-04-10T09:08:09;98866.56;;;16.56;71.93
20350;BME280;10332;50.208;18.988;2023-04-10T09:10:40;98870.44;;;17.48;70.58
20350;BME280;10332;50.208;18.988;2023-04-10T09:13:07;98873.72;;;18.43;66.72
20350;BME280;10332;50.208;18.988;2023-04-10T09:15:58;98875.13;;;18.07;62.62
20350;BME280;10332;50.208;18.988;2023-04-10T09:21:17;98874.28;;;19.06;60.12
20350;BME280;10332;50.208;18.988;2023-04-10T09:23:46;98874.91;;;18.29;61.99
20350;BME280;10332;50.208;18.988;2023-04-10T09:26:31;98865.22;;;17.78;63.21
20350;BME280;10332;50.208;18.988;2023-04-10T09:29:05;98866.75;;;17.71;63.23
20350;BME280;10332;50.208;18.988;2023-04-10T09:31:36;98863.84;;;17.21;64.72
20350;BME280;10332;50.208;18.988;2023-04-10T09:34:21;98872.06;;;16.64;66.31
20350;BME280;10332;50.208;18.988;2023-04-10T09:37:00;98874.03;;;16.17;67.27
20350;BME280;10332;50.208;18.988;2023-04-10T09:39:38;98871.41;;;15.83;68.15
20350;BME280;10332;50.208;18.988;2023-04-10T09:42:10;98871.81;;;15.55;69.74
20350;BME280;10332;50.208;18.988;2023-04-10T09:44:40;98866.59;;;15.31;70.66
20350;BME280;10332;50.208;18.988;2023-04-10T09:47:20;98862.78;;;14.76;72.31
20350;BME280;10332;50.208;18.988;2023-04-10T09:49:58;98854.41;;;14.95;72.09
20350;BME280;10332;50.208;18.988;2023-04-10T09:52:33;98858.97;;;14.80;73.02
20350;BME280;10332;50.208;18.988;2023-04-10T09:55:03;98863.50;;;14.78;73.28
20350;BME280;10332;50.208;18.988;2023-04-10T09:57:33;98855.94;;;14.73;73.70
20350;BME280;10332;50.208;18.988;2023-04-10T10:00:04;98846.91;;;14.77;73.77
20350;BME280;10332;50.208;18.988;2023-04-10T10:02:36;98850.09;;;14.70;73.76
20350;BME280;10332;50.208;18.988;2023-04-10T10:05:09;98839.00;;;14.54;74.33
20350;BME280;10332;50.208;18.988;2023-04-10T10:07:38;98838.28;;;14.52;74.63
20350;BME280;10332;50.208;18.988;2023-04-10T10:10:06;98838.81;;;14.57;74.77
20350;BME280;10332;50.208;18.988;2023-04-10T10:12:51;98836.06;;;14.58;74.85
20350;BME280;10332;50.208;18.988;2023-04-10T10:18:17;98837.22;;;14.41;74.90
20350;BME280;10332;50.208;18.988;2023-04-10T10:20:48;98839.34;;;14.36;75.44
20350;BME280;10332;50.208;18.988;2023-04-10T10:23:18;98835.88;;;14.36;75.34
20350;BME280;10332;50.208;18.988;2023-04-10T10:25:46;98841.97;;;14.36;75.51
20350;BME280;10332;50.208;18.988;2023-04-10T10:28:17;98834.38;;;14.44;75.70
20350;BME280;10332;50.208;18.988;2023-04-10T10:30:47;98833.38;;;14.34;75.98
20350;BME280;10332;50.208;18.988;2023-04-10T10:33:17;98827.81;;;14.26;76.07
20350;BME280;10332;50.208;18.988;2023-04-10T10:35:45;98831.16;;;14.28;76.26
20350;BME280;10332;50.208;18.988;2023-04-10T10:38:14;98823.78;;;14.46;76.34
20350;BME280;10332;50.208;18.988;2023-04-10T10:40:53;98825.13;;;14.52;76.38
20350;BME280;10332;50.208;18.988;2023-04-10T10:46:34;98817.03;;;14.55;75.71
20350;BME280;10332;50.208;18.988;2023-04-10T10:49:04;98819.66;;;14.55;75.80
20350;BME280;10332;50.208;18.988;2023-04-10T10:51:49;98810.44;;;14.36;76.03
20350;BME280;10332;50.208;18.988;2023-04-10T10:54:32;98823.75;;;14.22;76.47
20350;BME280;10332;50.208;18.988;2023-04-10T10:57:01;98819.34;;;14.10;76.76
20350;BME280;10332;50.208;18.988;2023-04-10T11:02:16;98819.38;;;13.97;77.36
20350;BME280;10332;50.208;18.988;2023-04-10T11:04:49;98816.41;;;14.02;77.39
20350;BME280;10332;50.208;18.988;2023-04-10T11:07:17;98818.50;;;14.09;77.41
20350;BME280;10332;50.208;18.988;2023-04-10T11:09:49;98813.06;;;14.00;77.92
20350;BME280;10332;50.208;18.988;2023-04-10T11:12:24;98807.69;;;14.01;78.11
20350;BME280;10332;50.208;18.988;2023-04-10T11:15:03;98799.09;;;14.36;77.35
20350;BME280;10332;50.208;18.988;2023-04-10T11:17:51;98809.69;;;16.31;72.45
20350;BME280;10332;50.208;18.988;2023-04-10T11:20:20;98800.56;;;19.11;63.42
20350;BME280;10332;50.208;18.988;2023-04-10T11:23:08;98797.38;;;21.10;55.96
20350;BME280;10332;50.208;18.988;2023-04-10T11:25:52;98800.41;;;20.44;55.65
20350;BME280;10332;50.208;18.988;2023-04-10T11:31:16;98787.84;;;19.34;58.46
20350;BME280;10332;50.208;18.988;2023-04-10T11:34:07;98781.50;;;18.79;59.50
20350;BME280;10332;50.208;18.988;2023-04-10T11:36:41;98779.47;;;18.32;60.89
20350;BME280;10332;50.208;18.988;2023-04-10T11:39:11;98787.47;;;18.02;61.86
20350;BME280;10332;50.208;18.988;2023-04-10T11:41:42;98780.28;;;17.73;62.77
20350;BME280;10332;50.208;18.988;2023-04-10T11:44:34;98776.44;;;17.66;63.44
20350;BME280;10332;50.208;18.988;2023-04-10T11:47:02;98774.41;;;17.70;63.70
20350;BME280;10332;50.208;18.988;2023-04-10T11:49:31;98757.63;;;18.30;62.27
20350;BME280;10332;50.208;18.988;2023-04-10T11:52:00;98754.41;;;19.80;57.86
20350;BME280;10332;50.208;18.988;2023-04-10T11:54:28;98764.63;;;20.83;54.35
20350;BME280;10332;50.208;18.988;2023-04-10T11:57:07;98749.97;;;22.76;49.77
20350;BME280;10332;50.208;18.988;2023-04-10T11:59:40;98738.13;;;29.02;37.87
20350;BME280;10332;50.208;18.988;2023-04-10T12:02:12;98734.97;;;31.24;34.00
20350;BME280;10332;50.208;18.988;2023-04-10T12:04:43;98744.19;;;35.17;29.81
20350;BME280;10332;50.208;18.988;2023-04-10T12:07:11;98741.88;;;37.91;25.45
20350;BME280;10332;50.208;18.988;2023-04-10T12:09:38;98746.63;;;39.99;22.61
20350;BME280;10332;50.208;18.988;2023-04-10T12:12:07;98748.50;;;42.08;20.50
20350;BME280;10332;50.208;18.988;2023-04-10T12:14:41;98736.25;;;38.18;22.92
20350;BME280;10332;50.208;18.988;2023-04-10T12:17:10;98731.84;;;36.53;23.57
20350;BME280;10332;50.208;18.988;2023-04-10T12:19:39;98730.16;;;39.14;21.53
20350;BME280;10332;50.208;18.988;2023-04-10T12:22:11;98726.16;;;42.58;19.37
20350;BME280;10332;50.208;18.988;2023-04-10T12:24:50;98731.28;;;46.08;16.78
20350;BME280;10332;50.208;18.988;2023-04-10T12:27:25;98722.97;;;47.97;14.96
20350;BME280;10332;50.208;18.988;2023-04-10T12:29:57;98717.41;;;47.68;15.25
20350;BME280;10332;50.208;18.988;2023-04-10T12:32:25;98721.25;;;47.46;14.77
20350;BME280;10332;50.208;18.988;2023-04-10T12:34:56;98702.84;;;43.20;16.86
20350;BME280;10332;50.208;18.988;2023-04-10T12:37:51;98714.88;;;47.92;13.50
20350;BME280;10332;50.208;18.988;2023-04-10T12:40:20;98704.31;;;47.01;14.66
20350;BME280;10332;50.208;18.988;2023-04-10T12:42:48;98693.81;;;41.16;17.54
20350;BME280;10332;50.208;18.988;2023-04-10T12:45:15;98684.50;;;38.43;19.58
20350;BME280;10332;50.208;18.988;2023-04-10T12:47:46;98683.16;;;38.86;19.58
20350;BME280;10332;50.208;18.988;2023-04-10T12:50:16;98681.16;;;41.49;17.63
20350;BME280;10332;50.208;18.988;2023-04-10T12:53:00;98671.09;;;39.33;19.12
20350;BME280;10332;50.208;18.988;2023-04-10T12:55:28;98666.84;;;35.80;22.38
20350;BME280;10332;50.208;18.988;2023-04-10T12:57:56;98670.44;;;33.61;24.12
20350;BME280;10332;50.208;18.988;2023-04-10T13:00:24;98664.06;;;32.20;25.40
20350;BME280;10332;50.208;18.988;2023-04-10T13:02:52;98648.28;;;30.89;26.84
20350;BME280;10332;50.208;18.988;2023-04-10T13:05:21;98645.50;;;29.76;27.96
20350;BME280;10332;50.208;18.988;2023-04-10T13:07:48;98640.22;;;29.49;28.08
20350;BME280;10332;50.208;18.988;2023-04-10T13:10:18;98636.34;;;34.96;23.58
20350;BME280;10332;50.208;18.988;2023-04-10T13:12:46;98630.88;;;37.86;20.65
20350;BME280;10332;50.208;18.988;2023-04-10T13:15:13;98638.34;;;40.32;19.17
20350;BME280;10332;50.208;18.988;2023-04-10T13:17:43;98634.94;;;41.61;18.01
20350;BME280;10332;50.208;18.988;2023-04-10T13:20:11;98626.53;;;42.33;16.90
20350;BME280;10332;50.208;18.988;2023-04-10T13:22:39;98623.00;;;43.25;16.89
20350;BME280;10332;50.208;18.988;2023-04-10T13:25:07;98624.69;;;40.95;17.60
20350;BME280;10332;50.208;18.988;2023-04-10T13:27:35;98618.69;;;41.89;17.30
20350;BME280;10332;50.208;18.988;2023-04-10T13:30:02;98610.59;;;41.55;17.66
20350;BME280;10332;50.208;18.988;2023-04-10T13:32:30;98620.00;;;38.01;19.13
20350;BME280;10332;50.208;18.988;2023-04-10T13:34:57;98604.75;;;35.28;21.53